Terminal Aerodrome Forecast
Issued by NWS

Current Version | Previous Version | Text Only | Print | Product List | Glossary On
Versions: 1 2 3 4 5 6 7 8 9 10 11 12
876
FTUS42 KTAE 310523
TAFVLD
TAF
KVLD 310523Z 3106/0106 VRB03KT P6SM SCT250
     FM311500 18005KT P6SM SCT050
     FM312000 18006KT P6SM VCTS SCT050CB BKN100
     FM010000 VRB03KT P6SM SCT050 BKN100=

USA.gov is the U.S. government's official web portal to all federal, state and local government web resources and services.